Flight Track Log - Related Links

Times and Time Zones

All times are in EDT time to prevent confusion due to time zone crossing. See the ASQ2542 flight status page for this flight to view local times or setup timezone preferences in your user account.

Time Position Orientation Groundspeed Altitude Reporting Facility
EDT Latitude Longitude Course Direction KTS MPH feet Rate Location/Type
Mon 04:24:27 PM 27.7539 -97.4933 238° Southwest 150 173 1,000  Level Houston Center
Mon 04:25:09 PM 27.7344 -97.5292 238° Southwest 212 244 2,300 2,452 Climbing Houston Center
Mon 04:26:00 PM 27.7658 -97.5686 312° West 225 259 4,800 2,442 Climbing Houston Center
Mon 04:27:02 PM 27.8336 -97.6114 331° Northwest 267 307 6,900 2,177 Climbing Houston Center
Mon 04:28:04 PM 27.9031 -97.6572 330° Northwest 285 328 9,300 1,790 Climbing Houston Center
Mon 04:29:06 PM 27.9742 -97.7061 329° Northwest 298 343 10,600 1,392 Climbing Houston Center
Mon 04:30:09 PM 28.0483 -97.7819 318° Northwest 350 403 12,200 1,632 Climbing Houston Center
Mon 04:31:11 PM 28.1000 -97.9000 296° West 355 409 14,000 1,355 Climbing Houston Center
Mon 04:32:13 PM 28.1436 -98.0025 296° West 359 413 15,000 1,113 Climbing Houston Center
Mon 04:33:15 PM 28.2292 -98.0664 327° Northwest 391 450 16,300 1,306 Climbing Houston Center
Mon 04:34:17 PM 28.3336 -98.0975 345° North 386 444 17,700 1,210 Climbing Houston Center
Mon 04:35:19 PM 28.4353 -98.1283 345° North 381 438 18,800 1,113 Climbing Houston Center
Mon 04:36:21 PM 28.5544 -98.1881 336° Northwest 386 444 20,000 1,065 Climbing Houston Center
Mon 04:37:23 PM 28.6464 -98.2547 328° Northwest 391 450 21,000 1,016 Climbing Houston Center
Mon 04:38:25 PM 28.7397 -98.3236 327° Northwest 386 444 22,100 1,056 Climbing Houston Center
Mon 04:39:28 PM 28.8386 -98.3956 327° Northwest 389 448 23,200 1,008 Climbing Houston Center
Mon 04:40:30 PM 28.9281 -98.4633 326° Northwest 386 444 24,200 1,016 Climbing Houston Center
Mon 04:41:32 PM 29.0317 -98.4964 344° North 401 461 25,300 1,016 Climbing Houston Center
Mon 04:42:34 PM 29.1522 -98.4906 North 405 466 26,300 823 Climbing Houston Center
Mon 04:43:36 PM 29.2642 -98.4836 North 404 465 27,000 339 Climbing Houston Center
Mon 04:44:38 PM 29.3892 -98.4758 North 415 478 27,000  Level Houston Center
Mon 04:45:40 PM 29.5017 -98.4678 North 430 495 27,000  Level Houston Center
Mon 04:46:42 PM 29.6397 -98.4611 North 443 510 27,000  Level Houston Center
Mon 04:47:44 PM 29.7731 -98.4425 North 435 501 27,000  Level Houston Center
Mon 04:48:47 PM 29.8992 -98.4239 North 453 521 27,000  Level Houston Center
Mon 04:49:49 PM 30.0364 -98.4033 North 460 529 27,000  Level Houston Center
Mon 04:50:51 PM 30.1639 -98.3842 North 462 532 27,000  Level Houston Center
Mon 04:51:53 PM 30.3014 -98.3631 North 462 532 27,000  Level Houston Center
Mon 04:52:55 PM 30.4167 -98.3475 North 468 539 27,000  Level Houston Center
Mon 04:53:57 PM 30.5439 -98.3289 North 464 534 27,000  Level Houston Center
Mon 04:54:59 PM 30.6706 -98.3092 North 460 529 27,000  Level Houston Center
Mon 04:56:01 PM 30.8242 -98.2869 North 461 531 27,000  Level Houston Center
Mon 04:56:43 PM 30.8992 -98.2775 North 447 514 27,000  Level Fort Worth Center
Mon 04:57:43 PM 31.0308 -98.2617 North 452 520 27,000 -200 Level Fort Worth Center
Mon 04:58:43 PM 31.1689 -98.2339 10° North 452 520 26,600 -850 Descending Fort Worth Center
Mon 04:59:43 PM 31.2878 -98.2206 North 437 503 25,300 -1,050 Descending Fort Worth Center
Mon 05:00:43 PM 31.3736 -98.2042 North 388 447 24,500 -650 Descending Fort Worth Center
Mon 05:01:43 PM 31.4717 -98.1928 North 357 411 24,000 -250 Descending Fort Worth Center
Mon 05:02:43 PM 31.5681 -98.1667 13° North 351 404 24,000  Level Fort Worth Center
Mon 05:03:43 PM 31.6600 -98.1236 22° Northeast 356 410 24,000  Level Fort Worth Center
Mon 05:04:43 PM 31.7544 -98.0756 23° Northeast 362 417 24,000  Level Fort Worth Center
Mon 05:05:43 PM 31.8506 -98.0419 17° North 357 411 24,000  Level Fort Worth Center
Mon 05:06:43 PM 31.9528 -98.0597 352° North 338 389 24,000 -550 Level Fort Worth Center
Mon 05:07:43 PM 32.0444 -98.0728 353° North 333 383 22,900 -1,500 Descending Fort Worth Center
Mon 05:08:43 PM 32.1322 -98.0511 12° North 319 367 21,000 -2,000 Descending Fort Worth Center
Mon 05:09:43 PM 32.1558 -97.9311 77° East 287 330 18,900 -1,950 Descending Fort Worth Center
Mon 05:10:43 PM 32.2022 -97.8308 61° Northeast 324 373 17,100 -1,850 Descending Fort Worth Center
Mon 05:11:43 PM 32.2692 -97.7475 46° Northeast 363 418 15,200 -2,050 Descending Fort Worth Center
Mon 05:12:43 PM 32.3467 -97.6544 45° Northeast 369 425 13,000 -2,000 Descending Fort Worth Center
Mon 05:13:43 PM 32.4094 -97.5808 45° Northeast 358 412 11,200 -1,000 Descending Fort Worth Center
Mon 05:14:43 PM 32.4825 -97.4947 45° Northeast 341 392 11,000 -100 Descending Fort Worth Center
Mon 05:15:43 PM 32.5369 -97.4281 46° Northeast 323 372 11,000  Level Fort Worth Center
Mon 05:16:43 PM 32.6036 -97.3469 46° Northeast 312 359 11,000  Level Fort Worth Center
Mon 05:17:43 PM 32.6517 -97.2875 46° Northeast 288 331 11,000  Level Fort Worth Center
Mon 05:18:43 PM 32.7100 -97.2158 46° Northeast 274 315 11,000  Level Fort Worth Center
Mon 05:19:43 PM 32.7642 -97.1714 35° Northeast 269 310 11,000 -850 Level Fort Worth Center
Mon 05:20:43 PM 32.8353 -97.1686 North 254 292 9,300 -1,900 Descending Fort Worth Center
Mon 05:21:43 PM 32.9083 -97.1661 North 249 287 7,200 -2,050 Descending Fort Worth Center
Mon 05:22:43 PM 32.9897 -97.1658 360° North 257 296 5,200 -1,550 Descending Fort Worth Center
Mon 05:23:43 PM 33.0503 -97.1656 360° North 245 282 4,100 -1,050 Descending Fort Worth Center
Mon 05:24:43 PM 33.1169 -97.1431 16° North 230 265 3,100 -835 Descending Fort Worth Center
Mon 05:25:02 PM 33.1167 -97.1167 91° East 240 276 3,000 -82 Descending Dallas / Fort Worth TRACON
Mon 05:25:56 PM 33.0833 -97.0667 128° Southeast 188 216 3,000  Level Dallas / Fort Worth TRACON
Mon 05:26:56 PM 33.0500 -97.0500 157° South 159 183 3,000 -298 Level Dallas / Fort Worth TRACON
Mon 05:27:57 PM 33.0000 -97.0500 180° South 160 184 2,400 -590 Descending Dallas / Fort Worth TRACON

Login

Don't have an account? Register now (free) for customized features, flight alerts, and more!